Terminal Aerodrome Forecast
Issued by NWS Mt. Holly, NJ

Home | Current Version | Previous Version | Text Only | Print | Product List | Glossary On
Versions: 1 2 3 4 5 6 7 8 9 10 11 12 13 14 15 16 17 18 19 20 21 22 23 24 25 26 27
000
FTUS41 KPHI 040207 AAA
TAFACY
TAF AMD
KACY 040207Z 0402/0424 18009KT 1SM -RA BR OVC003 WS015/23055KT
     FM040800 24010KT 2SM -RA BR OVC005 WS020/25045KT
     FM041200 27007KT 2SM -RA BR OVC007
     FM041900 33005KT 4SM -RA BR OVC007=

USA.gov is the U.S. government's official web portal to all federal, state and local government web resources and services.